createdAt,value
2023-02-18T00:00:03.096Z,9.77
2023-02-18T00:00:44.925Z,8.70
2023-02-18T00:01:27.078Z,8.90
2023-02-18T00:02:09.075Z,8.85
2023-02-18T00:02:53.049Z,8.50
2023-02-18T00:03:34.999Z,8.60
2023-02-18T00:04:17.190Z,9.73
2023-02-18T00:04:59.209Z,9.75
2023-02-18T00:05:40.986Z,9.35
2023-02-18T00:06:27.354Z,8.02
2023-02-18T00:07:09.112Z,11.65
2023-02-18T00:07:52.988Z,9.80
2023-02-18T00:08:34.790Z,11.40
2023-02-18T00:09:16.624Z,10.75
2023-02-18T00:09:58.465Z,10.27
2023-02-18T00:10:43.626Z,8.70
2023-02-18T00:11:26.064Z,9.77
2023-02-18T00:12:10.382Z,9.40
2023-02-18T00:12:52.134Z,11.00
2023-02-18T00:13:34.056Z,8.50
2023-02-18T00:14:17.003Z,9.00
2023-02-18T00:14:59.399Z,7.97
2023-02-18T00:15:41.178Z,13.05
2023-02-18T00:16:24.293Z,9.00
2023-02-18T00:17:06.140Z,9.45
2023-02-18T00:17:47.931Z,10.30
2023-02-18T00:18:29.878Z,9.63
2023-02-18T00:19:18.038Z,9.23
2023-02-18T00:20:00.010Z,9.40
2023-02-18T00:20:42.194Z,8.68
2023-02-18T00:21:24.193Z,10.20
2023-02-18T00:22:08.013Z,9.85
2023-02-18T00:22:49.742Z,9.00
2023-02-18T00:23:32.146Z,9.18
2023-02-18T00:24:16.500Z,8.95
2023-02-18T00:24:58.314Z,8.45
2023-02-18T00:25:40.087Z,8.77
2023-02-18T00:26:22.223Z,8.48
2023-02-18T00:27:04.126Z,10.13
2023-02-18T00:27:48.155Z,10.27
2023-02-18T00:28:30.453Z,8.52
2023-02-18T00:29:13.016Z,8.70
2023-02-18T00:29:55.019Z,10.38
2023-02-18T00:30:43.668Z,8.80
2023-02-18T00:31:28.158Z,8.88
2023-02-18T00:32:10.061Z,8.93
2023-02-18T00:32:52.004Z,8.40
2023-02-18T00:33:34.169Z,9.15
2023-02-18T00:34:18.248Z,8.82
2023-02-18T00:35:00.118Z,9.43
2023-02-18T00:35:42.700Z,10.77
2023-02-18T00:36:25.524Z,9.27
2023-02-18T00:37:07.744Z,10.68
2023-02-18T00:37:54.968Z,9.50
2023-02-18T00:38:37.267Z,11.00
2023-02-18T00:39:19.189Z,12.98
2023-02-18T00:40:03.288Z,9.85
2023-02-18T00:40:45.142Z,9.27
2023-02-18T00:41:28.517Z,10.50
2023-02-18T00:42:10.650Z,8.93
2023-02-18T00:42:52.714Z,9.20
2023-02-18T00:43:34.671Z,9.15
2023-02-18T00:44:16.454Z,8.43
2023-02-18T00:44:58.176Z,11.13
2023-02-18T00:45:40.211Z,9.75
2023-02-18T00:46:23.276Z,8.60
2023-02-18T00:47:05.103Z,8.52
2023-02-18T00:47:49.229Z,9.27
2023-02-18T00:48:33.440Z,8.73
2023-02-18T00:49:18.473Z,8.50
2023-02-18T00:50:00.268Z,10.55
2023-02-18T00:50:42.427Z,11.02
2023-02-18T00:51:25.594Z,7.85
2023-02-18T00:52:07.887Z,8.00
2023-02-18T00:52:49.860Z,8.18
2023-02-18T00:53:32.434Z,7.82
2023-02-18T00:54:14.273Z,7.90
2023-02-18T00:54:58.113Z,6.60
2023-02-18T00:55:48.718Z,8.63
2023-02-18T00:56:30.643Z,9.10
2023-02-18T00:57:12.439Z,7.25
2023-02-18T00:57:54.265Z,7.65
2023-02-18T00:58:36.691Z,8.90
2023-02-18T00:59:18.478Z,8.43
2023-02-18T01:00:00.268Z,10.10
2023-02-18T01:00:42.390Z,7.25
2023-02-18T01:01:24.479Z,7.97
2023-02-18T01:02:07.620Z,8.73
2023-02-18T01:02:56.038Z,7.72
2023-02-18T01:03:40.060Z,7.63
2023-02-18T01:04:21.872Z,6.93
2023-02-18T01:05:04.345Z,7.60
2023-02-18T01:05:46.652Z,7.10
2023-02-18T01:06:28.518Z,6.70
2023-02-18T01:07:10.430Z,6.75
2023-02-18T01:07:52.381Z,8.07
2023-02-18T01:08:35.222Z,6.78
2023-02-18T01:09:17.282Z,7.30
2023-02-18T01:09:59.149Z,8.48
2023-02-18T01:10:43.461Z,8.90
2023-02-18T01:11:25.427Z,6.70
2023-02-18T01:12:07.435Z,7.32
2023-02-18T01:12:49.625Z,8.63
2023-02-18T01:13:32.441Z,6.90
2023-02-18T01:14:14.250Z,6.75
2023-02-18T01:14:58.118Z,7.70
2023-02-18T01:15:41.339Z,6.95
2023-02-18T01:16:23.722Z,6.72
2023-02-18T01:17:05.642Z,6.57
2023-02-18T01:17:48.053Z,7.68
2023-02-18T01:18:30.358Z,7.78
2023-02-18T01:19:12.150Z,7.35
2023-02-18T01:19:53.927Z,7.35
2023-02-18T01:20:40.713Z,6.80
2023-02-18T01:21:22.553Z,6.68
2023-02-18T01:22:04.372Z,7.10
2023-02-18T01:22:46.178Z,7.25
2023-02-18T01:23:30.357Z,7.32
2023-02-18T01:24:12.475Z,6.50
2023-02-18T01:24:54.395Z,6.82
2023-02-18T01:25:37.481Z,7.32
2023-02-18T01:26:19.326Z,7.00
2023-02-18T01:27:03.248Z,7.75
2023-02-18T01:27:44.993Z,8.07
2023-02-18T01:28:26.834Z,6.43
2023-02-18T01:29:08.617Z,6.95
2023-02-18T01:29:50.439Z,7.82
2023-02-18T01:30:32.345Z,7.20
2023-02-18T01:31:17.530Z,9.05
2023-02-18T01:31:59.474Z,9.05
2023-02-18T01:32:43.704Z,7.78
2023-02-18T01:33:25.462Z,7.45
2023-02-18T01:34:07.243Z,7.75
2023-02-18T01:34:49.028Z,7.13
2023-02-18T01:35:33.494Z,8.73
2023-02-18T01:36:17.016Z,7.13
2023-02-18T01:36:58.804Z,9.30
2023-02-18T01:37:40.760Z,7.75
2023-02-18T01:38:22.549Z,7.05
2023-02-18T01:39:06.054Z,6.10
2023-02-18T01:39:48.062Z,6.57
2023-02-18T01:40:30.856Z,6.93
2023-02-18T01:41:12.989Z,7.75
2023-02-18T01:41:55.032Z,7.53
2023-02-18T01:42:36.825Z,7.35
2023-02-18T01:43:20.448Z,7.57
2023-02-18T01:44:23.503Z,6.60
2023-02-18T01:45:35.719Z,7.88
2023-02-18T01:46:20.075Z,7.03
2023-02-18T01:47:01.868Z,6.88
2023-02-18T01:47:43.655Z,8.05
2023-02-18T01:48:31.218Z,7.07
2023-02-18T01:49:18.102Z,8.90
2023-02-18T01:50:00.141Z,6.57
2023-02-18T01:50:51.042Z,6.63
2023-02-18T01:51:39.068Z,5.93
2023-02-18T01:52:26.922Z,6.93
2023-02-18T01:53:09.139Z,6.45
2023-02-18T01:54:04.536Z,6.10
2023-02-18T01:54:50.541Z,7.35
2023-02-18T01:55:34.610Z,6.75
2023-02-18T01:56:37.904Z,8.10
2023-02-18T01:57:32.996Z,7.60
2023-02-18T01:58:15.596Z,7.25
2023-02-18T01:59:00.547Z,7.78
2023-02-18T02:00:06.977Z,8.25
2023-02-18T02:00:48.871Z,8.48
2023-02-18T02:01:32.349Z,7.90
2023-02-18T02:02:18.230Z,7.70
2023-02-18T02:03:00.220Z,7.13
2023-02-18T02:03:42.008Z,7.55
2023-02-18T02:04:24.084Z,9.25
2023-02-18T02:05:09.142Z,8.48
2023-02-18T02:05:51.044Z,8.43
2023-02-18T02:06:33.007Z,7.47
2023-02-18T02:07:15.951Z,9.40
2023-02-18T02:07:58.301Z,7.50
2023-02-18T02:08:40.263Z,7.47
2023-02-18T02:09:26.146Z,8.40
2023-02-18T02:10:09.663Z,8.02
2023-02-18T02:10:57.883Z,7.88
2023-02-18T02:11:45.181Z,8.60
2023-02-18T02:12:54.589Z,8.38
2023-02-18T02:14:05.130Z,8.07
2023-02-18T02:15:22.016Z,11.50
2023-02-18T02:16:24.058Z,8.70
2023-02-18T02:17:27.011Z,10.10
2023-02-18T02:18:23.158Z,9.45
2023-02-18T02:19:13.135Z,9.13
2023-02-18T02:20:20.933Z,7.88
2023-02-18T02:21:05.220Z,8.88
2023-02-18T02:22:10.649Z,9.30
2023-02-18T02:23:16.313Z,10.40
2023-02-18T02:24:13.886Z,9.65
2023-02-18T02:25:15.893Z,9.30
2023-02-18T02:26:39.579Z,8.82
2023-02-18T02:28:11.249Z,8.93
2023-02-18T02:29:12.274Z,10.02
2023-02-18T02:30:11.015Z,8.18
2023-02-18T02:31:18.800Z,9.05
2023-02-18T02:32:24.866Z,9.10
2023-02-18T02:33:48.486Z,8.25
2023-02-18T02:34:47.020Z,8.45
2023-02-18T02:35:37.272Z,8.27
2023-02-18T02:36:30.705Z,8.23
2023-02-18T02:37:38.777Z,10.35
2023-02-18T02:38:34.688Z,8.82
2023-02-18T02:39:39.060Z,9.00
2023-02-18T02:40:42.567Z,9.02
2023-02-18T02:42:03.859Z,10.43
2023-02-18T02:43:23.866Z,7.90
2023-02-18T02:44:20.196Z,9.82
2023-02-18T02:45:29.295Z,8.80
2023-02-18T02:46:11.600Z,8.45
2023-02-18T02:47:02.186Z,8.60
2023-02-18T02:47:52.559Z,8.00
2023-02-18T02:49:06.444Z,7.75
2023-02-18T02:50:03.279Z,9.50
2023-02-18T02:51:01.864Z,7.97
2023-02-18T02:52:05.220Z,7.65
2023-02-18T02:53:00.537Z,8.00
2023-02-18T02:53:43.914Z,6.90
2023-02-18T02:54:28.352Z,7.20
2023-02-18T02:55:14.838Z,6.50
2023-02-18T02:55:59.355Z,8.43
2023-02-18T02:56:41.258Z,7.65
2023-02-18T02:57:22.990Z,7.88
2023-02-18T02:58:05.006Z,8.23
2023-02-18T02:58:57.299Z,7.35
2023-02-18T02:59:43.242Z,7.00
2023-02-18T03:01:01.009Z,6.20
2023-02-18T03:02:09.100Z,7.38
2023-02-18T03:03:44.996Z,6.97
2023-02-18T03:05:02.450Z,6.47
2023-02-18T03:05:49.930Z,5.22
2023-02-18T03:06:56.281Z,5.70
2023-02-18T03:08:12.937Z,4.82
2023-02-18T03:09:06.719Z,4.63
2023-02-18T03:10:14.646Z,5.10
2023-02-18T03:11:12.682Z,5.55
2023-02-18T03:12:03.243Z,4.97
2023-02-18T03:13:03.584Z,4.70
2023-02-18T03:13:45.830Z,4.50
2023-02-18T03:14:29.138Z,4.50
2023-02-18T03:15:20.516Z,4.95
2023-02-18T03:16:26.060Z,4.18
2023-02-18T03:17:25.046Z,12.93
2023-02-18T03:18:30.416Z,4.57
2023-02-18T03:19:38.466Z,4.50
2023-02-18T03:20:27.683Z,4.15
2023-02-18T03:21:19.105Z,3.80
2023-02-18T03:22:12.582Z,4.65
2023-02-18T03:22:56.066Z,3.80
2023-02-18T03:23:53.524Z,3.85
2023-02-18T03:24:41.447Z,4.40
2023-02-18T03:25:24.239Z,3.80
2023-02-18T03:26:07.183Z,3.80
2023-02-18T03:26:56.087Z,3.80
2023-02-18T03:27:53.362Z,4.40
2023-02-18T03:28:36.122Z,4.32
2023-02-18T03:29:20.174Z,4.30
2023-02-18T03:30:13.521Z,5.43
2023-02-18T03:31:10.921Z,3.70
2023-02-18T03:31:59.432Z,4.47
2023-02-18T03:32:41.321Z,3.80
2023-02-18T03:33:35.052Z,3.78
2023-02-18T03:34:23.348Z,3.72
2023-02-18T03:35:13.675Z,4.00
2023-02-18T03:35:56.961Z,3.35
2023-02-18T03:36:40.251Z,3.97
2023-02-18T03:37:22.624Z,3.95
2023-02-18T03:38:19.885Z,3.95
2023-02-18T03:39:05.960Z,3.47
2023-02-18T03:39:55.639Z,3.78
2023-02-18T03:40:37.470Z,3.63
2023-02-18T03:41:19.285Z,4.13
2023-02-18T03:42:01.058Z,3.55
2023-02-18T03:42:42.946Z,3.50
2023-02-18T03:43:26.844Z,3.60
2023-02-18T03:44:10.271Z,4.05
2023-02-18T03:44:52.029Z,4.45
2023-02-18T03:45:34.395Z,4.05
2023-02-18T03:46:16.426Z,3.40
2023-02-18T03:46:58.514Z,5.68
2023-02-18T03:47:40.388Z,5.68
2023-02-18T03:48:22.476Z,3.50
2023-02-18T03:49:04.758Z,3.17
2023-02-18T03:49:46.589Z,3.90
2023-02-18T03:50:28.472Z,4.30
2023-02-18T03:51:10.713Z,3.47
2023-02-18T03:51:52.532Z,3.53
2023-02-18T03:52:36.636Z,3.30
2023-02-18T03:53:18.783Z,3.10
2023-02-18T03:54:00.816Z,6.03
2023-02-18T03:54:42.664Z,5.95
2023-02-18T03:55:24.436Z,2.80
2023-02-18T03:56:07.059Z,2.70
2023-02-18T03:56:49.490Z,3.10
2023-02-18T03:57:31.343Z,2.92
2023-02-18T03:58:13.615Z,2.85
2023-02-18T03:58:55.470Z,4.20
2023-02-18T03:59:39.341Z,3.55
2023-02-18T04:00:21.562Z,3.38
2023-02-18T04:01:04.470Z,3.42
2023-02-18T04:01:46.364Z,3.90
2023-02-18T04:02:30.487Z,3.70
2023-02-18T04:03:14.566Z,4.30
2023-02-18T04:03:56.481Z,4.45
2023-02-18T04:04:38.662Z,3.67
2023-02-18T04:05:20.590Z,2.70
2023-02-18T04:06:04.856Z,3.50
2023-02-18T04:06:46.689Z,3.65
2023-02-18T04:07:28.664Z,3.00
2023-02-18T04:08:10.473Z,4.20
2023-02-18T04:08:52.270Z,2.80
2023-02-18T04:09:36.841Z,2.67
2023-02-18T04:10:21.578Z,2.70
2023-02-18T04:11:03.682Z,2.60
2023-02-18T04:11:45.476Z,2.80
2023-02-18T04:12:29.813Z,2.90
2023-02-18T04:13:11.744Z,2.13
2023-02-18T04:13:53.672Z,2.20
2023-02-18T04:14:35.475Z,2.20
2023-02-18T04:15:19.856Z,2.10
2023-02-18T04:16:01.659Z,2.50
2023-02-18T04:16:43.820Z,2.30
2023-02-18T04:17:25.823Z,2.10
2023-02-18T04:18:07.581Z,2.20
2023-02-18T04:18:49.509Z,2.10
2023-02-18T04:19:31.307Z,2.50
2023-02-18T04:20:13.538Z,2.20
2023-02-18T04:20:55.432Z,2.00
2023-02-18T04:21:39.562Z,1.90
2023-02-18T04:22:21.380Z,2.10
2023-02-18T04:23:04.088Z,3.25
2023-02-18T04:23:45.952Z,3.40
2023-02-18T04:24:27.730Z,2.80
2023-02-18T04:25:09.531Z,2.10
2023-02-18T04:25:51.295Z,2.08
2023-02-18T04:26:35.479Z,2.10
2023-02-18T04:27:17.270Z,2.00
2023-02-18T04:27:59.568Z,2.13
2023-02-18T04:28:41.361Z,2.10
2023-02-18T04:29:25.325Z,1.90
2023-02-18T04:30:08.031Z,2.10
2023-02-18T04:30:50.257Z,2.05
2023-02-18T04:31:32.217Z,2.40
2023-02-18T04:32:14.549Z,2.10
2023-02-18T04:32:56.378Z,1.90
2023-02-18T04:33:38.918Z,1.80
2023-02-18T04:34:21.099Z,2.70
2023-02-18T04:35:03.682Z,2.15
2023-02-18T04:35:45.811Z,2.38
2023-02-18T04:36:27.690Z,2.60
2023-02-18T04:37:09.692Z,1.80
2023-02-18T04:37:51.445Z,1.90
2023-02-18T04:38:33.805Z,3.45
2023-02-18T04:39:15.607Z,2.60
2023-02-18T04:39:59.505Z,1.90
2023-02-18T04:40:41.402Z,3.10
2023-02-18T04:41:25.319Z,3.20
2023-02-18T04:42:09.093Z,1.80
2023-02-18T04:42:51.330Z,1.85
2023-02-18T04:43:33.153Z,2.50
2023-02-18T04:44:15.121Z,1.80
2023-02-18T04:44:56.915Z,1.73
2023-02-18T04:45:38.858Z,1.80
2023-02-18T04:46:20.675Z,2.40
2023-02-18T04:47:03.397Z,2.47
2023-02-18T04:47:45.137Z,1.80
2023-02-18T04:48:26.979Z,2.05
2023-02-18T04:49:09.537Z,2.10
2023-02-18T04:49:51.342Z,1.90
2023-02-18T04:50:33.269Z,1.90
2023-02-18T04:51:15.532Z,2.10
2023-02-18T04:51:57.308Z,1.80
2023-02-18T04:52:39.608Z,1.80
2023-02-18T04:53:21.390Z,1.90
2023-02-18T04:54:03.842Z,2.03
2023-02-18T04:54:45.748Z,2.20
2023-02-18T04:55:29.905Z,1.90
2023-02-18T04:56:11.714Z,1.90
2023-02-18T04:56:53.904Z,1.88
2023-02-18T04:57:35.686Z,1.80
2023-02-18T04:58:17.919Z,2.22
2023-02-18T04:59:00.270Z,2.25
2023-02-18T04:59:42.237Z,2.30
2023-02-18T05:00:24.559Z,2.40
2023-02-18T05:01:08.562Z,2.10
2023-02-18T05:01:50.484Z,2.88
2023-02-18T05:02:32.993Z,2.50
2023-02-18T05:03:15.019Z,1.90
2023-02-18T05:03:56.851Z,2.60
2023-02-18T05:04:38.829Z,3.80
2023-02-18T05:05:20.733Z,3.40
2023-02-18T05:06:03.659Z,2.10
2023-02-18T05:06:45.692Z,2.90
2023-02-18T05:07:27.885Z,2.13
2023-02-18T05:08:09.736Z,2.00
2023-02-18T05:08:54.172Z,2.55
2023-02-18T05:09:35.957Z,2.92
2023-02-18T05:10:18.787Z,2.60
2023-02-18T05:11:00.656Z,1.90
2023-02-18T05:11:42.943Z,2.60
2023-02-18T05:12:24.785Z,2.00
2023-02-18T05:13:09.054Z,1.90
2023-02-18T05:13:50.854Z,2.20
2023-02-18T05:14:32.728Z,2.13
2023-02-18T05:15:15.397Z,3.22
2023-02-18T05:15:57.350Z,2.55
2023-02-18T05:16:39.799Z,2.10
2023-02-18T05:17:23.692Z,2.40
2023-02-18T05:18:05.903Z,2.80
2023-02-18T05:18:47.771Z,2.50
2023-02-18T05:19:29.852Z,2.97
2023-02-18T05:20:12.412Z,3.20
2023-02-18T05:20:54.412Z,2.10
2023-02-18T05:21:36.300Z,3.03
2023-02-18T05:22:18.856Z,3.25
2023-02-18T05:23:00.798Z,3.20
2023-02-18T05:23:44.926Z,2.50
2023-02-18T05:24:29.045Z,3.42
2023-02-18T05:25:11.115Z,2.45
2023-02-18T05:25:52.995Z,2.30
2023-02-18T05:26:35.125Z,2.40
2023-02-18T05:27:16.985Z,2.60
2023-02-18T05:27:58.918Z,2.50
2023-02-18T05:28:40.726Z,3.65
2023-02-18T05:29:22.517Z,3.20
2023-02-18T05:30:05.158Z,4.03
2023-02-18T05:30:47.192Z,4.60
2023-02-18T05:31:29.154Z,3.42
2023-02-18T05:32:11.158Z,3.63
2023-02-18T05:32:53.124Z,3.20
2023-02-18T05:33:34.902Z,3.92
2023-02-18T05:34:19.247Z,2.75
2023-02-18T05:35:01.028Z,2.50
2023-02-18T05:35:43.112Z,2.97
2023-02-18T05:36:25.311Z,3.90
2023-02-18T05:37:07.160Z,3.03
2023-02-18T05:37:49.030Z,2.72
2023-02-18T05:38:30.912Z,4.20
2023-02-18T05:39:13.062Z,4.72
2023-02-18T05:39:54.938Z,3.30
2023-02-18T05:40:39.715Z,2.97
2023-02-18T05:41:21.589Z,3.40
2023-02-18T05:42:04.038Z,2.85
2023-02-18T05:42:45.854Z,2.80
2023-02-18T05:43:27.741Z,2.42
2023-02-18T05:44:29.894Z,3.58
2023-02-18T05:45:11.843Z,2.80
2023-02-18T05:45:56.357Z,2.85
2023-02-18T05:46:38.971Z,3.00
2023-02-18T05:47:20.821Z,2.63
2023-02-18T05:48:03.242Z,2.35
2023-02-18T05:48:45.073Z,2.60
2023-02-18T05:49:30.068Z,2.50
2023-02-18T05:50:11.919Z,3.20
2023-02-18T05:50:54.620Z,3.95
2023-02-18T05:51:36.451Z,2.50
2023-02-18T05:52:18.683Z,2.30
2023-02-18T05:53:00.571Z,2.55
2023-02-18T05:53:42.573Z,3.25
2023-02-18T05:54:25.700Z,2.60
2023-02-18T05:55:10.585Z,2.50
2023-02-18T05:55:52.415Z,2.75
2023-02-18T05:56:34.250Z,3.75
2023-02-18T05:57:16.061Z,3.47
2023-02-18T05:57:58.220Z,2.90
2023-02-18T05:58:40.078Z,3.50
2023-02-18T05:59:24.496Z,3.95
2023-02-18T06:00:09.342Z,2.80
2023-02-18T06:00:51.161Z,2.90
2023-02-18T06:01:33.329Z,3.55
2023-02-18T06:02:15.668Z,4.50
2023-02-18T06:02:58.347Z,3.13
2023-02-18T06:03:40.116Z,3.45
2023-02-18T06:04:22.351Z,3.70
2023-02-18T06:05:05.714Z,3.20
2023-02-18T06:05:50.605Z,3.22
2023-02-18T06:06:32.726Z,4.00
2023-02-18T06:07:14.744Z,3.00
2023-02-18T06:07:56.874Z,3.60
2023-02-18T06:08:39.168Z,2.75
2023-02-18T06:09:20.946Z,2.85
2023-02-18T06:10:03.409Z,2.90
2023-02-18T06:10:45.180Z,3.00
2023-02-18T06:11:29.120Z,2.78
2023-02-18T06:12:10.905Z,2.60
2023-02-18T06:12:52.871Z,2.90
2023-02-18T06:13:34.775Z,2.83
2023-02-18T06:14:19.567Z,3.45
2023-02-18T06:15:01.413Z,2.38
2023-02-18T06:15:43.475Z,2.90
2023-02-18T06:16:25.667Z,2.65
2023-02-18T06:17:08.354Z,2.33
2023-02-18T06:17:50.195Z,2.70
2023-02-18T06:18:34.867Z,2.50
2023-02-18T06:19:16.723Z,3.22
2023-02-18T06:19:58.868Z,3.50
2023-02-18T06:20:40.900Z,3.83
2023-02-18T06:21:22.763Z,3.80
2023-02-18T06:22:05.132Z,2.70
2023-02-18T06:22:49.227Z,2.50
2023-02-18T06:23:31.040Z,2.70
2023-02-18T06:24:12.885Z,2.53
2023-02-18T06:24:54.927Z,2.78
2023-02-18T06:25:36.710Z,2.60
2023-02-18T06:26:18.860Z,2.50
2023-02-18T06:27:00.876Z,2.50
2023-02-18T06:27:42.682Z,2.20
2023-02-18T06:28:24.697Z,2.40
2023-02-18T06:29:06.580Z,2.47
2023-02-18T06:29:48.553Z,2.20
2023-02-18T06:30:30.382Z,2.42
2023-02-18T06:31:14.805Z,2.28
2023-02-18T06:31:57.329Z,4.45
2023-02-18T06:32:39.328Z,3.15
2023-02-18T06:33:21.100Z,2.10
2023-02-18T06:34:02.945Z,1.90
2023-02-18T06:34:44.868Z,2.00
2023-02-18T06:35:26.886Z,2.10
2023-02-18T06:36:12.045Z,2.70
2023-02-18T06:36:56.366Z,3.10
2023-02-18T06:37:38.553Z,2.50
2023-02-18T06:38:20.793Z,2.55
2023-02-18T06:39:04.580Z,2.30
2023-02-18T06:39:46.385Z,2.22
2023-02-18T06:40:28.534Z,2.10
2023-02-18T06:41:11.861Z,2.10
2023-02-18T06:41:53.887Z,2.10
2023-02-18T06:42:35.883Z,2.10
2023-02-18T06:43:18.488Z,2.30
2023-02-18T06:44:00.326Z,3.17
2023-02-18T06:44:44.509Z,2.83
2023-02-18T06:45:26.381Z,2.10
2023-02-18T06:46:08.740Z,2.22
2023-02-18T06:46:50.954Z,2.30
2023-02-18T06:47:33.971Z,2.33
2023-02-18T06:48:16.877Z,2.60
2023-02-18T06:49:01.423Z,2.97
2023-02-18T06:49:45.711Z,4.93
2023-02-18T06:50:27.482Z,4.20
2023-02-18T06:51:09.440Z,3.05
2023-02-18T06:51:51.224Z,2.95
2023-02-18T06:52:38.046Z,2.40
2023-02-18T06:53:19.991Z,2.08
2023-02-18T06:54:01.779Z,2.53
2023-02-18T06:54:43.977Z,2.17
2023-02-18T06:55:26.369Z,3.40
2023-02-18T06:56:10.671Z,3.70
2023-02-18T06:56:52.570Z,2.75
2023-02-18T06:57:34.530Z,2.90
2023-02-18T06:58:16.620Z,2.20
2023-02-18T06:58:59.060Z,2.53
2023-02-18T06:59:40.973Z,3.15
2023-02-18T07:00:23.435Z,3.38
2023-02-18T07:01:05.684Z,2.80
2023-02-18T07:01:47.529Z,3.20
2023-02-18T07:02:29.451Z,2.58
2023-02-18T07:03:16.854Z,2.70
2023-02-18T07:03:58.714Z,2.17
2023-02-18T07:04:40.525Z,2.65
2023-02-18T07:05:24.700Z,3.20
2023-02-18T07:06:06.973Z,5.05
2023-02-18T07:06:49.186Z,4.00
2023-02-18T07:07:31.019Z,2.80
2023-02-18T07:08:13.150Z,3.10
2023-02-18T07:08:55.113Z,2.40
2023-02-18T07:09:36.878Z,2.40
2023-02-18T07:10:19.285Z,2.38
2023-02-18T07:11:01.063Z,2.53
2023-02-18T07:11:42.901Z,2.50
2023-02-18T07:12:24.683Z,3.58
2023-02-18T07:13:06.531Z,3.90
2023-02-18T07:13:50.672Z,2.42
2023-02-18T07:14:34.803Z,2.30
2023-02-18T07:15:17.108Z,2.30
2023-02-18T07:15:59.142Z,3.00
2023-02-18T07:16:40.993Z,2.40
2023-02-18T07:17:22.823Z,2.20
2023-02-18T07:18:04.794Z,2.60
2023-02-18T07:18:47.110Z,3.10
2023-02-18T07:19:29.237Z,2.28
2023-02-18T07:20:11.231Z,2.80
2023-02-18T07:20:53.030Z,3.25
2023-02-18T07:21:35.032Z,2.40
2023-02-18T07:22:17.137Z,2.80
2023-02-18T07:22:59.450Z,3.50
2023-02-18T07:23:41.259Z,3.13
2023-02-18T07:24:23.691Z,3.60
2023-02-18T07:25:05.813Z,2.90
2023-02-18T07:25:47.700Z,2.72
2023-02-18T07:26:29.650Z,2.60
2023-02-18T07:27:11.457Z,3.40
2023-02-18T07:27:53.278Z,2.13
2023-02-18T07:28:35.176Z,1.95
2023-02-18T07:29:17.700Z,2.47
2023-02-18T07:29:59.750Z,2.47
2023-02-18T07:30:41.628Z,2.20
2023-02-18T07:31:25.650Z,2.30
2023-02-18T07:32:09.938Z,2.50
2023-02-18T07:32:51.760Z,2.20
2023-02-18T07:33:33.786Z,2.15
2023-02-18T07:34:15.647Z,2.40
2023-02-18T07:34:59.750Z,2.50
2023-02-18T07:35:41.604Z,3.80
2023-02-18T07:36:23.991Z,4.28
2023-02-18T07:37:09.318Z,3.30
2023-02-18T07:37:51.328Z,2.95
2023-02-18T07:38:33.145Z,3.45
2023-02-18T07:39:15.072Z,3.35
2023-02-18T07:39:56.880Z,3.20
2023-02-18T07:40:38.694Z,3.55
2023-02-18T07:41:22.833Z,2.95
2023-02-18T07:42:04.760Z,1.90
2023-02-18T07:42:48.859Z,2.35
2023-02-18T07:43:30.683Z,2.90
2023-02-18T07:44:14.576Z,2.70
2023-02-18T07:44:56.347Z,3.63
2023-02-18T07:45:39.616Z,3.30
2023-02-18T07:46:23.814Z,3.13
2023-02-18T07:47:10.123Z,2.75
2023-02-18T07:47:51.997Z,2.95
2023-02-18T07:48:33.791Z,2.95
2023-02-18T07:49:15.686Z,2.83
2023-02-18T07:49:57.871Z,3.22
2023-02-18T07:50:44.754Z,3.10
2023-02-18T07:51:28.933Z,2.33
2023-02-18T07:52:10.783Z,2.28
2023-02-18T07:52:54.918Z,4.00
2023-02-18T07:53:38.117Z,2.70
2023-02-18T07:54:20.191Z,2.90
2023-02-18T07:55:02.006Z,3.10
2023-02-18T07:55:49.647Z,2.75
2023-02-18T07:56:33.805Z,2.72
2023-02-18T07:57:15.570Z,3.08
2023-02-18T07:57:57.490Z,2.90
2023-02-18T07:58:40.296Z,2.42
2023-02-18T07:59:22.195Z,2.60
2023-02-18T08:00:04.896Z,2.25
2023-02-18T08:00:47.758Z,2.95
2023-02-18T08:01:29.574Z,2.50
2023-02-18T08:02:22.884Z,3.40
2023-02-18T08:03:04.804Z,2.83
2023-02-18T08:03:48.726Z,3.15
2023-02-18T08:04:30.638Z,2.95
2023-02-18T08:05:13.412Z,3.20
2023-02-18T08:05:55.824Z,3.95
2023-02-18T08:06:39.356Z,2.97
2023-02-18T08:07:23.065Z,2.40
2023-02-18T08:08:04.993Z,2.20
2023-02-18T08:08:49.159Z,2.60
2023-02-18T08:09:30.989Z,2.40
2023-02-18T08:10:13.217Z,2.42
2023-02-18T08:10:59.678Z,2.80
2023-02-18T08:11:43.709Z,3.00
2023-02-18T08:12:25.490Z,3.50
2023-02-18T08:13:07.343Z,2.92
2023-02-18T08:13:49.475Z,2.50
2023-02-18T08:14:31.327Z,3.10
2023-02-18T08:15:16.075Z,2.78
2023-02-18T08:16:00.629Z,4.30
2023-02-18T08:16:42.486Z,3.97
2023-02-18T08:17:24.366Z,3.10
2023-02-18T08:18:08.679Z,4.85
2023-02-18T08:18:51.993Z,4.05
2023-02-18T08:19:33.840Z,5.05
2023-02-18T08:20:15.833Z,5.30
2023-02-18T08:20:58.873Z,4.90
2023-02-18T08:21:40.813Z,5.60
2023-02-18T08:22:25.359Z,5.22
2023-02-18T08:23:07.254Z,5.13
2023-02-18T08:23:49.652Z,4.32
2023-02-18T08:24:31.588Z,5.20
2023-02-18T08:25:27.675Z,6.07
2023-02-18T08:26:11.589Z,5.50
2023-02-18T08:27:00.299Z,5.03
2023-02-18T08:27:43.249Z,6.00
2023-02-18T08:28:25.498Z,6.03
2023-02-18T08:29:07.302Z,7.87
2023-02-18T08:29:49.799Z,7.68
2023-02-18T08:30:33.985Z,6.55
2023-02-18T08:31:27.453Z,7.55
2023-02-18T08:32:09.407Z,7.13
2023-02-18T08:32:51.975Z,4.45
2023-02-18T08:33:34.358Z,4.70
2023-02-18T08:34:16.152Z,4.35
2023-02-18T08:34:57.928Z,6.57
2023-02-18T08:35:39.939Z,5.55
2023-02-18T08:36:23.073Z,5.75
2023-02-18T08:37:05.102Z,6.65
2023-02-18T08:37:52.540Z,4.82
2023-02-18T08:38:36.846Z,4.50
2023-02-18T08:39:20.755Z,6.95
2023-02-18T08:40:03.496Z,8.43
2023-02-18T08:40:46.134Z,10.27
2023-02-18T08:41:28.108Z,7.28
2023-02-18T08:42:10.113Z,9.48
2023-02-18T08:42:54.220Z,9.85
2023-02-18T08:43:36.692Z,7.57
2023-02-18T08:44:21.351Z,6.97
2023-02-18T08:45:03.886Z,6.20
2023-02-18T08:45:45.787Z,8.77
2023-02-18T08:46:35.384Z,9.93
2023-02-18T08:48:17.249Z,9.25
2023-02-18T08:48:20.768Z,7.93
2023-02-18T08:49:03.152Z,6.70
2023-02-18T08:49:45.003Z,6.65
2023-02-18T08:50:28.262Z,7.80
2023-02-18T08:51:16.936Z,6.47
2023-02-18T08:51:59.195Z,7.50
2023-02-18T08:52:41.055Z,5.90
2023-02-18T08:53:22.917Z,6.43
2023-02-18T08:54:04.996Z,7.47
2023-02-18T08:54:46.789Z,6.90
2023-02-18T08:55:29.306Z,9.63
2023-02-18T08:56:11.396Z,8.80
2023-02-18T08:56:55.814Z,10.27
2023-02-18T08:57:37.670Z,8.85
2023-02-18T08:58:19.539Z,8.10
2023-02-18T08:59:01.348Z,9.55
2023-02-18T08:59:43.606Z,9.45
2023-02-18T09:00:26.392Z,8.27
2023-02-18T09:01:10.402Z,8.55
2023-02-18T09:01:53.116Z,10.90
2023-02-18T09:02:35.038Z,8.35
2023-02-18T09:03:18.899Z,7.18
2023-02-18T09:04:01.078Z,7.47
2023-02-18T09:04:43.199Z,10.18
2023-02-18T09:05:25.174Z,7.80
2023-02-18T09:06:07.597Z,8.70
2023-02-18T09:06:50.243Z,6.03
2023-02-18T09:07:34.087Z,5.60
2023-02-18T09:08:15.903Z,6.90
2023-02-18T09:09:00.142Z,10.05
2023-02-18T09:09:42.117Z,9.18
2023-02-18T09:10:24.552Z,10.13
2023-02-18T09:11:06.817Z,11.20
2023-02-18T09:11:49.582Z,5.78
2023-02-18T09:12:31.391Z,9.15
2023-02-18T09:13:13.666Z,12.73
2023-02-18T09:13:55.593Z,8.00
2023-02-18T09:14:37.436Z,6.55
2023-02-18T09:15:19.372Z,6.65
2023-02-18T09:16:03.689Z,7.30
2023-02-18T09:16:45.595Z,7.90
2023-02-18T09:17:28.147Z,8.20
2023-02-18T09:18:10.128Z,7.30
2023-02-18T09:18:53.963Z,9.38
2023-02-18T09:19:35.771Z,6.93
2023-02-18T09:20:17.726Z,5.53
2023-02-18T09:21:00.817Z,9.57
2023-02-18T09:21:42.810Z,7.07
2023-02-18T09:22:24.824Z,7.72
2023-02-18T09:23:06.587Z,7.90
2023-02-18T09:23:49.330Z,6.63
2023-02-18T09:24:31.257Z,7.05
2023-02-18T09:25:13.267Z,10.98
2023-02-18T09:25:55.525Z,8.68
2023-02-18T09:26:38.633Z,9.07
2023-02-18T09:27:21.133Z,10.18
2023-02-18T09:28:05.318Z,7.25
2023-02-18T09:28:49.232Z,8.90
2023-02-18T09:29:34.350Z,8.75
2023-02-18T09:30:16.322Z,5.60
2023-02-18T09:30:59.112Z,9.20
2023-02-18T09:31:41.119Z,8.40
2023-02-18T09:32:34.372Z,6.45
2023-02-18T09:33:17.795Z,7.88
2023-02-18T09:34:02.562Z,7.53
2023-02-18T09:34:45.805Z,8.10
2023-02-18T09:35:27.659Z,9.18
2023-02-18T09:36:09.634Z,12.35
2023-02-18T09:36:51.483Z,10.35
2023-02-18T09:37:33.413Z,7.07
2023-02-18T09:38:17.444Z,6.82
2023-02-18T09:38:59.626Z,7.78
2023-02-18T09:39:41.842Z,6.15
2023-02-18T09:40:29.652Z,5.35
2023-02-18T09:41:29.900Z,8.75
2023-02-18T09:42:16.065Z,11.70
2023-02-18T09:42:58.830Z,11.02
2023-02-18T09:43:43.860Z,7.32
2023-02-18T09:44:28.173Z,9.50
2023-02-18T09:45:12.952Z,8.68
2023-02-18T09:45:56.310Z,9.43
2023-02-18T09:46:46.851Z,6.60
2023-02-18T09:47:44.496Z,8.38
2023-02-18T09:48:33.316Z,11.18
2023-02-18T09:49:18.891Z,9.45
2023-02-18T09:50:06.099Z,6.15
2023-02-18T09:50:52.836Z,10.70
2023-02-18T09:51:35.135Z,11.88
2023-02-18T09:52:23.761Z,10.40
2023-02-18T09:53:05.579Z,9.30
2023-02-18T09:53:48.198Z,6.97